Time;durP1;ratioP1;P1;durP2;ratioP2;P2;SDS_P1;SDS_P2;PMS_P1;PMS_P2;Temp;Humidity;BMP_temperature;BMP_pressure;BME280_temperature;BME280_humidity;BME280_pressure;Samples;Min_cycle;Max_cycle;Signal;HPM_P1;HPM_P2
2022/02/16 00:00:10;;;;;;;37.47;22.33;;;23.90;35.90;;;;;;6107055;28;83298;-64
2022/02/16 00:03:13;;;;;;;39.53;22.02;;;23.90;36.20;;;;;;6091483;28;84766;-64
2022/02/16 00:06:14;;;;;;;41.65;23.92;;;23.90;36.20;;;;;;6110002;28;83306;-64
2022/02/16 00:09:14;;;;;;;38.92;22.15;;;23.90;36.80;;;;;;6101742;28;83077;-64
2022/02/16 00:12:15;;;;;;;40.13;23.27;;;23.90;36.40;;;;;;6095867;28;83016;-64
2022/02/16 00:15:15;;;;;;;38.90;23.30;;;23.90;36.40;;;;;;6096564;28;83434;-65
2022/02/16 00:18:18;;;;;;;44.13;24.65;;;23.90;36.30;;;;;;6097898;28;84404;-64
2022/02/16 00:21:19;;;;;;;43.30;24.33;;;23.80;36.40;;;;;;6101414;28;83335;-64
2022/02/16 00:24:19;;;;;;;42.72;23.00;;;23.90;36.50;;;;;;6109636;28;84504;-63
2022/02/16 00:27:20;;;;;;;38.53;23.48;;;23.80;36.20;;;;;;6099756;28;83201;-63
2022/02/16 00:30:21;;;;;;;43.30;25.13;;;23.90;36.30;;;;;;6099180;28;83450;-63
2022/02/16 00:33:21;;;;;;;43.95;25.48;;;23.80;36.00;;;;;;6118371;28;83092;-64
2022/02/16 00:36:22;;;;;;;43.20;24.65;;;23.80;36.00;;;;;;6125361;28;85766;-64
2022/02/16 00:39:22;;;;;;;45.63;24.70;;;23.70;35.90;;;;;;6127580;28;83677;-64
2022/02/16 00:42:23;;;;;;;44.40;26.17;;;23.80;35.90;;;;;;6118243;28;85873;-64
2022/02/16 00:45:23;;;;;;;45.88;25.83;;;23.80;36.00;;;;;;6110872;28;83152;-63
2022/02/16 00:48:24;;;;;;;45.05;25.42;;;23.70;35.90;;;;;;6123184;28;86098;-64
2022/02/16 00:51:25;;;;;;;48.42;25.70;;;23.70;36.00;;;;;;6111570;28;85402;-63
2022/02/16 00:54:26;;;;;;;46.03;26.33;;;23.70;36.00;;;;;;6086573;28;84523;-63
2022/02/16 00:57:27;;;;;;;44.75;24.83;;;23.70;35.90;;;;;;6106080;28;84307;-64
2022/02/16 01:00:28;;;;;;;45.00;25.77;;;23.70;36.00;;;;;;6100710;28;85419;-63
2022/02/16 01:03:29;;;;;;;42.50;25.35;;;23.70;35.90;;;;;;6105015;28;86130;-64
2022/02/16 01:06:29;;;;;;;46.95;25.42;;;23.70;36.10;;;;;;6109916;28;83332;-63
2022/02/16 01:09:30;;;;;;;49.22;27.10;;;23.70;36.10;;;;;;6122004;28;82963;-64
2022/02/16 01:12:31;;;;;;;44.13;25.95;;;23.70;36.00;;;;;;6112165;28;86367;-63
2022/02/16 01:15:31;;;;;;;44.72;24.73;;;23.70;36.00;;;;;;6108269;28;85786;-63
2022/02/16 01:18:35;;;;;;;50.42;28.15;;;23.70;35.80;;;;;;6120891;28;85538;-62
2022/02/16 01:21:35;;;;;;;48.58;25.70;;;23.70;35.80;;;;;;6124593;28;85525;-63
2022/02/16 01:24:39;;;;;;;49.38;26.50;;;23.70;35.80;;;;;;6108400;28;85491;-62
2022/02/16 01:27:41;;;;;;;50.25;25.63;;;23.70;35.80;;;;;;6114848;28;85065;-63
2022/02/16 01:30:42;;;;;;;43.38;25.52;;;23.60;35.70;;;;;;6109141;28;85483;-63
2022/02/16 01:33:50;;;;;;;45.58;25.88;;;23.60;35.80;;;;;;6098082;28;84787;-64
2022/02/16 01:36:51;;;;;;;47.45;25.20;;;23.60;35.70;;;;;;6122503;28;85140;-63
2022/02/16 01:39:52;;;;;;;47.60;26.25;;;23.60;35.70;;;;;;6115746;28;86198;-64
2022/02/16 01:42:53;;;;;;;43.03;25.27;;;23.60;35.70;;;;;;6105048;28;85911;-64
2022/02/16 01:46:02;;;;;;;44.45;24.92;;;23.60;35.70;;;;;;6107382;28;84224;-64
2022/02/16 01:49:02;;;;;;;46.92;27.25;;;23.60;35.90;;;;;;6122942;28;85800;-64
2022/02/16 01:52:09;;;;;;;49.00;26.40;;;23.60;35.70;;;;;;6103656;28;85572;-64
2022/02/16 01:55:15;;;;;;;41.15;25.25;;;23.60;35.70;;;;;;6119978;28;85469;-64
2022/02/16 01:58:16;;;;;;;42.60;25.08;;;23.60;35.70;;;;;;6104670;28;84949;-63
2022/02/16 02:01:43;;;;;;;44.55;25.98;;;23.60;35.70;;;;;;6110045;28;87953;-64
2022/02/16 02:04:45;;;;;;;42.53;24.05;;;23.60;35.80;;;;;;6116904;28;85756;-63
2022/02/16 02:07:48;;;;;;;43.17;25.63;;;23.60;35.70;;;;;;6122576;28;85651;-63
2022/02/16 02:10:49;;;;;;;47.20;24.73;;;23.60;35.70;;;;;;6117839;28;83120;-65
2022/02/16 02:13:49;;;;;;;46.50;24.13;;;23.60;35.80;;;;;;6104735;28;84063;-65
2022/02/16 02:16:55;;;;;;;41.45;24.83;;;23.50;35.60;;;;;;6111743;28;84183;-64
2022/02/16 02:19:56;;;;;;;54.50;26.20;;;23.60;35.80;;;;;;6118104;28;85659;-64
2022/02/16 02:22:57;;;;;;;40.85;24.77;;;23.60;35.90;;;;;;6098921;28;84673;-64
2022/02/16 02:25:58;;;;;;;41.03;24.33;;;23.60;36.00;;;;;;6106699;28;85967;-64
2022/02/16 02:29:01;;;;;;;45.72;25.92;;;23.60;35.90;;;;;;6103744;28;84644;-64
2022/02/16 02:32:04;;;;;;;44.42;23.98;;;23.60;36.00;;;;;;6126606;28;84298;-64
2022/02/16 02:35:05;;;;;;;42.53;22.63;;;23.60;35.90;;;;;;6114408;28;86107;-64
2022/02/16 02:38:06;;;;;;;42.92;24.52;;;23.50;35.70;;;;;;6108364;28;84394;-63
2022/02/16 02:41:06;;;;;;;42.63;23.38;;;23.60;35.90;;;;;;6108869;28;83222;-63
2022/02/16 02:44:09;;;;;;;43.40;23.52;;;23.50;36.00;;;;;;6103745;28;85482;-64
2022/02/16 02:47:11;;;;;;;43.22;24.77;;;23.60;36.00;;;;;;6106377;28;86004;-64
2022/02/16 02:50:13;;;;;;;42.63;24.75;;;23.50;35.90;;;;;;6113922;28;85842;-64
2022/02/16 02:53:14;;;;;;;40.00;23.05;;;23.60;36.10;;;;;;6106930;28;85673;-64
2022/02/16 02:56:15;;;;;;;39.42;23.95;;;23.60;36.00;;;;;;6125008;28;85752;-64
2022/02/16 02:59:16;;;;;;;45.00;24.67;;;23.60;36.00;;;;;;6095861;28;86343;-64
2022/02/16 03:02:19;;;;;;;42.92;24.05;;;23.50;35.90;;;;;;6119474;28;86100;-65
2022/02/16 03:05:20;;;;;;;43.08;23.70;;;23.50;36.00;;;;;;6108581;28;86179;-64
2022/02/16 03:08:20;;;;;;;43.50;24.30;;;23.50;35.90;;;;;;6118596;28;83188;-64
2022/02/16 03:11:21;;;;;;;44.00;24.92;;;23.50;36.00;;;;;;6120303;28;90043;-65
2022/02/16 03:14:25;;;;;;;41.78;24.90;;;23.50;36.00;;;;;;6125694;28;85597;-65
2022/02/16 03:17:26;;;;;;;47.80;25.50;;;23.50;36.00;;;;;;6108240;28;85313;-64
2022/02/16 03:20:27;;;;;;;51.35;26.90;;;23.50;35.90;;;;;;6094867;28;86150;-64
2022/02/16 03:23:28;;;;;;;42.95;26.15;;;23.50;35.80;;;;;;6116243;28;85706;-64
2022/02/16 03:26:28;;;;;;;47.47;25.88;;;23.50;35.70;;;;;;6127544;28;86096;-64
2022/02/16 03:29:29;;;;;;;51.05;26.33;;;23.50;35.80;;;;;;6098018;28;83628;-64
2022/02/16 03:32:31;;;;;;;44.83;25.52;;;23.50;35.70;;;;;;6121367;28;85653;-64
2022/02/16 03:35:32;;;;;;;47.38;26.00;;;23.50;35.70;;;;;;6098611;28;85637;-64
2022/02/16 03:38:35;;;;;;;47.78;26.65;;;23.50;35.70;;;;;;6119664;28;84722;-64
2022/02/16 03:41:36;;;;;;;48.85;27.55;;;23.50;35.70;;;;;;6118057;28;86205;-64
2022/02/16 03:44:36;;;;;;;52.13;27.80;;;23.50;35.60;;;;;;6121277;28;86010;-64
2022/02/16 03:47:39;;;;;;;47.72;28.00;;;23.50;35.60;;;;;;6125630;28;85328;-64
2022/02/16 03:50:40;;;;;;;46.88;28.52;;;23.50;35.60;;;;;;6108801;28;84915;-64
2022/02/16 03:53:41;;;;;;;52.13;28.92;;;23.50;35.60;;;;;;6103114;28;84852;-64
2022/02/16 03:56:43;;;;;;;54.05;29.08;;;23.50;35.70;;;;;;6111123;28;85982;-64
2022/02/16 03:59:44;;;;;;;59.15;29.83;;;23.50;35.60;;;;;;6085899;28;85930;-64
2022/02/16 04:02:59;;;;;;;53.05;30.25;;;23.50;35.70;;;;;;6098387;28;85930;-65
2022/02/16 04:05:59;;;;;;;57.33;32.20;;;23.50;35.50;;;;;;6117446;28;83357;-64
2022/02/16 04:09:00;;;;;;;60.35;31.48;;;23.40;35.60;;;;;;6105839;28;85167;-64
2022/02/16 04:12:01;;;;;;;51.20;28.98;;;23.50;35.60;;;;;;6101213;28;85699;-64
2022/02/16 04:15:03;;;;;;;56.20;28.20;;;23.50;36.10;;;;;;6115080;28;84129;-64
2022/02/16 04:18:05;;;;;;;59.25;32.03;;;23.50;35.90;;;;;;6110551;28;85534;-64
2022/02/16 04:21:06;;;;;;;62.50;33.08;;;23.50;35.50;;;;;;6109760;28;85836;-64
2022/02/16 04:24:20;;;;;;;62.03;33.40;;;23.60;35.60;;;;;;6116136;28;86140;-64
2022/02/16 04:27:20;;;;;;;57.17;31.52;;;23.60;35.40;;;;;;6123916;28;83966;-63
2022/02/16 04:30:21;;;;;;;66.90;35.60;;;23.70;35.40;;;;;;6111462;28;82996;-63
2022/02/16 04:33:22;;;;;;;61.15;33.95;;;23.70;35.10;;;;;;6099322;28;85439;-63
2022/02/16 04:36:25;;;;;;;62.20;35.08;;;23.70;35.00;;;;;;6087001;28;84096;-61
2022/02/16 04:39:29;;;;;;;59.95;34.78;;;23.80;34.90;;;;;;6097122;28;85741;-62
2022/02/16 04:42:29;;;;;;;62.25;34.72;;;23.80;34.80;;;;;;6095178;28;85796;-62
2022/02/16 04:45:30;;;;;;;57.72;34.53;;;23.90;34.80;;;;;;6116045;28;84958;-62
2022/02/16 04:48:32;;;;;;;58.55;33.53;;;23.90;34.70;;;;;;6100940;28;85140;-63
2022/02/16 04:51:32;;;;;;;60.38;34.47;;;23.90;34.70;;;;;;6125216;28;86057;-62
2022/02/16 04:54:33;;;;;;;60.97;33.30;;;23.90;34.70;;;;;;6124729;28;86297;-62
2022/02/16 04:57:34;;;;;;;59.45;33.83;;;24.00;34.80;;;;;;6110861;28;85837;-63
2022/02/16 05:00:35;;;;;;;55.50;31.33;;;24.00;34.90;;;;;;6099707;28;85790;-63
2022/02/16 05:03:48;;;;;;;55.58;31.58;;;24.00;34.90;;;;;;6119695;28;85993;-63
2022/02/16 05:06:48;;;;;;;54.80;30.05;;;24.00;34.90;;;;;;6096799;28;85745;-61
2022/02/16 05:09:51;;;;;;;46.42;27.48;;;24.10;35.00;;;;;;6108334;28;85700;-64
2022/02/16 05:12:52;;;;;;;47.10;26.98;;;24.00;34.90;;;;;;6091912;28;85042;-62
2022/02/16 05:15:53;;;;;;;48.83;26.92;;;24.00;34.90;;;;;;6120668;28;85834;-63
2022/02/16 05:18:55;;;;;;;44.28;25.42;;;24.10;34.90;;;;;;6105630;28;86233;-64
2022/02/16 05:21:57;;;;;;;39.95;23.55;;;24.10;35.00;;;;;;6107180;28;85943;-63
2022/02/16 05:25:03;;;;;;;;;;;24.10;35.30;;;;;;6117789;28;86068;-62
2022/02/16 05:28:04;;;;;;;40.63;21.80;;;24.10;35.50;;;;;;6120825;28;85591;-64
2022/02/16 05:31:05;;;;;;;41.58;21.13;;;24.20;35.70;;;;;;6113250;28;82946;-60
2022/02/16 05:34:06;;;;;;;37.17;20.05;;;24.30;35.70;;;;;;6107804;28;85586;-62
2022/02/16 05:37:08;;;;;;;34.72;19.63;;;24.30;35.60;;;;;;6107507;28;84283;-62
2022/02/16 05:40:09;;;;;;;39.03;19.77;;;24.30;35.70;;;;;;6120800;28;85560;-61
2022/02/16 05:43:13;;;;;;;36.20;18.50;;;24.30;35.60;;;;;;6111340;28;85292;-62
2022/02/16 05:46:14;;;;;;;35.33;19.67;;;24.30;35.90;;;;;;6110528;28;84761;-61
2022/02/16 05:49:16;;;;;;;32.60;18.90;;;24.30;35.80;;;;;;6102625;28;85121;-63
2022/02/16 05:52:17;;;;;;;34.70;18.45;;;24.30;36.30;;;;;;6101701;28;84310;-63
2022/02/16 05:55:18;;;;;;;30.67;17.42;;;24.30;35.90;;;;;;6105130;28;84821;-61
2022/02/16 05:58:18;;;;;;;30.27;17.58;;;24.30;36.10;;;;;;6104046;28;85113;-63
2022/02/16 06:01:19;;;;;;;25.95;16.27;;;24.30;36.70;;;;;;6106130;28;83425;-60
2022/02/16 06:04:28;;;;;;;33.88;16.95;;;24.30;36.60;;;;;;6123860;28;90002;-63
2022/02/16 06:07:29;;;;;;;29.55;15.60;;;24.20;37.00;;;;;;6120944;28;85959;-63
2022/02/16 06:10:30;;;;;;;28.58;16.98;;;24.30;37.20;;;;;;6116955;28;84985;-64
2022/02/16 06:13:31;;;;;;;26.73;15.25;;;24.20;37.40;;;;;;6115856;28;85957;-65
2022/02/16 06:16:33;;;;;;;25.33;15.15;;;24.30;37.60;;;;;;6114149;28;86221;-61
2022/02/16 06:19:33;;;;;;;25.40;15.20;;;24.30;37.60;;;;;;6117959;28;85899;-63
2022/02/16 06:22:34;;;;;;;29.33;15.25;;;24.30;38.60;;;;;;6123845;28;83104;-63
2022/02/16 06:25:35;;;;;;;25.90;14.65;;;24.30;37.80;;;;;;6102431;28;85958;-59
2022/02/16 06:28:38;;;;;;;27.98;15.20;;;24.30;38.20;;;;;;6093351;28;86051;-64
2022/02/16 06:31:39;;;;;;;26.17;14.90;;;24.30;38.40;;;;;;6096914;28;86048;-62
2022/02/16 06:34:40;;;;;;;25.95;14.85;;;24.30;38.40;;;;;;6089389;28;86122;-63
2022/02/16 06:37:41;;;;;;;24.95;13.93;;;24.40;38.70;;;;;;6088232;28;85464;-60
2022/02/16 06:40:41;;;;;;;30.75;16.38;;;24.40;38.80;;;;;;6103268;28;83042;-63
2022/02/16 06:43:44;;;;;;;23.65;14.38;;;24.30;38.80;;;;;;6111604;28;85804;-63
2022/02/16 06:46:47;;;;;;;29.63;14.90;;;24.40;38.70;;;;;;6090589;28;85556;-63
2022/02/16 06:49:48;;;;;;;28.50;15.00;;;24.40;38.80;;;;;;6109101;28;85575;-65
2022/02/16 06:52:49;;;;;;;27.42;14.77;;;24.30;38.80;;;;;;6122940;28;85989;-63
2022/02/16 06:55:50;;;;;;;28.50;15.20;;;24.30;38.40;;;;;;6113921;28;83259;-64
2022/02/16 06:59:01;;;;;;;30.15;15.00;;;24.30;38.70;;;;;;6115170;28;85738;-67
2022/02/16 07:02:02;;;;;;;31.38;16.27;;;24.30;38.50;;;;;;6098392;28;85334;-66
2022/02/16 07:05:03;;;;;;;30.30;15.90;;;24.20;38.50;;;;;;6104659;28;85789;-66
2022/02/16 07:08:04;;;;;;;28.95;15.48;;;24.30;38.60;;;;;;6121279;28;85786;-63
2022/02/16 07:11:05;;;;;;;26.67;15.77;;;24.20;39.30;;;;;;6103102;28;85413;-63
2022/02/16 07:14:06;;;;;;;30.27;15.05;;;24.20;38.60;;;;;;6103180;28;84216;-62
2022/02/16 07:17:07;;;;;;;26.83;15.98;;;24.20;38.60;;;;;;6105524;28;84798;-61
2022/02/16 07:20:08;;;;;;;26.98;14.82;;;24.10;38.90;;;;;;6109620;28;84078;-61
2022/02/16 07:23:09;;;;;;;28.83;15.82;;;24.10;39.40;;;;;;6095752;28;85950;-65
2022/02/16 07:26:10;;;;;;;23.73;14.55;;;24.10;39.40;;;;;;6095163;28;85924;-62
2022/02/16 07:29:11;;;;;;;24.85;13.40;;;24.10;39.20;;;;;;6106011;28;85911;-62
2022/02/16 07:32:12;;;;;;;24.95;14.00;;;24.10;39.20;;;;;;6114063;28;85659;-62
2022/02/16 07:35:12;;;;;;;25.52;13.50;;;24.10;39.20;;;;;;6119729;28;84656;-62
2022/02/16 07:38:14;;;;;;;21.05;12.75;;;24.00;38.90;;;;;;6122431;28;85180;-62
2022/02/16 07:41:15;;;;;;;22.30;12.32;;;24.00;38.80;;;;;;6119945;28;86332;-62
2022/02/16 07:44:33;;;;;;;27.60;12.93;;;24.00;38.80;;;;;;6103472;28;85964;-63
2022/02/16 07:47:39;;;;;;;20.92;11.82;;;24.00;38.70;;;;;;6123627;28;85855;-62
2022/02/16 07:50:41;;;;;;;20.95;12.38;;;23.90;38.50;;;;;;6108770;28;84796;-62
2022/02/16 07:54:08;;;;;;;18.02;11.25;;;23.90;38.50;;;;;;6112573;28;83044;-63
2022/02/16 07:57:12;;;;;;;20.55;11.35;;;23.90;38.40;;;;;;6127321;28;85418;-63
2022/02/16 08:00:12;;;;;;;20.17;11.98;;;23.90;38.30;;;;;;6126272;28;85901;-62
2022/02/16 08:03:16;;;;;;;21.80;12.02;;;23.90;39.10;;;;;;6121118;28;82747;-63
2022/02/16 08:06:17;;;;;;;19.90;11.80;;;23.90;38.40;;;;;;6105497;28;85247;-63
2022/02/16 08:09:18;;;;;;;20.67;11.85;;;23.90;38.40;;;;;;6092771;28;85914;-63
2022/02/16 08:12:19;;;;;;;17.38;10.60;;;23.90;38.30;;;;;;6096264;28;84370;-63
2022/02/16 08:15:20;;;;;;;16.42;10.38;;;23.90;38.30;;;;;;6096012;28;85632;-63
2022/02/16 08:18:21;;;;;;;16.13;9.65;;;23.90;38.30;;;;;;6093662;28;88486;-62
2022/02/16 08:21:23;;;;;;;16.92;10.60;;;23.80;38.20;;;;;;6099636;28;85915;-62
2022/02/16 08:24:23;;;;;;;17.45;10.90;;;23.80;38.20;;;;;;6099623;28;83220;-63
2022/02/16 08:27:27;;;;;;;20.13;10.32;;;23.90;38.20;;;;;;6114357;28;84516;-63
2022/02/16 08:30:33;;;;;;;17.33;10.25;;;23.80;38.10;;;;;;6099466;28;83172;-63
2022/02/16 08:33:35;;;;;;;19.83;10.38;;;23.90;38.10;;;;;;6096685;28;83067;-63
2022/02/16 08:36:40;;;;;;;15.88;10.80;;;23.90;38.10;;;;;;6098495;28;85475;-63
2022/02/16 08:39:40;;;;;;;21.15;11.25;;;23.90;38.00;;;;;;6105769;28;84201;-63
2022/02/16 08:42:41;;;;;;;16.67;9.95;;;23.90;38.00;;;;;;6106589;28;83144;-63
2022/02/16 08:45:44;;;;;;;17.80;10.43;;;23.90;37.90;;;;;;6098663;28;83952;-63
2022/02/16 08:48:45;;;;;;;15.27;9.60;;;24.00;37.90;;;;;;6092455;28;82988;-63
2022/02/16 08:51:45;;;;;;;19.27;10.77;;;24.10;38.30;;;;;;6104412;28;83072;-62
2022/02/16 08:54:46;;;;;;;16.48;11.10;;;24.10;37.90;;;;;;6121206;28;82956;-63
2022/02/16 08:57:46;;;;;;;18.83;11.35;;;24.20;38.10;;;;;;6125110;28;83091;-63
2022/02/16 09:00:47;;;;;;;16.58;10.15;;;24.30;37.70;;;;;;6123212;28;84218;-63
2022/02/16 09:03:47;;;;;;;17.05;10.38;;;24.30;38.00;;;;;;6123633;28;83062;-63
2022/02/16 09:10:07;;;;;;;15.85;10.25;;;24.40;37.40;;;;;;6128590;28;83227;-63
2022/02/16 09:13:08;;;;;;;17.02;10.43;;;24.40;37.30;;;;;;6103289;28;82844;-62
2022/02/16 09:16:08;;;;;;;15.57;9.95;;;24.50;37.60;;;;;;6102636;28;83144;-63
2022/02/16 09:19:09;;;;;;;22.67;11.75;;;24.60;37.00;;;;;;6107188;28;85643;-64
2022/02/16 09:22:11;;;;;;;18.10;11.00;;;24.10;35.70;;;;;;6098340;28;83238;-64
2022/02/16 09:25:12;;;;;;;18.23;11.20;;;24.00;36.30;;;;;;6101992;28;84243;-62
2022/02/16 09:28:13;;;;;;;18.90;11.32;;;24.00;36.40;;;;;;6103197;28;83141;-62
2022/02/16 09:31:14;;;;;;;18.73;11.38;;;24.10;36.00;;;;;;6120361;28;84352;-65
2022/02/16 09:34:14;;;;;;;23.20;11.45;;;24.10;36.00;;;;;;6114324;28;83023;-63
2022/02/16 09:37:15;;;;;;;16.40;10.00;;;24.00;35.60;;;;;;6098143;28;84227;-62
2022/02/16 09:40:15;;;;;;;14.60;9.00;;;24.00;35.90;;;;;;6102101;28;84128;-63
2022/02/16 09:43:27;;;;;;;13.95;8.50;;;23.80;35.70;;;;;;6094611;28;83041;-62
2022/02/16 09:46:28;;;;;;;16.00;8.45;;;23.80;36.00;;;;;;6105328;28;87397;-61
2022/02/16 09:49:28;;;;;;;15.07;7.75;;;23.70;36.60;;;;;;6100410;28;82788;-62
2022/02/16 09:52:29;;;;;;;14.90;8.50;;;23.70;37.30;;;;;;6102738;28;80624;-62
2022/02/16 09:55:30;;;;;;;10.80;6.95;;;23.60;37.20;;;;;;6098116;28;80938;-62
2022/02/16 09:58:33;;;;;;;11.73;6.65;;;23.60;37.90;;;;;;6105442;28;80499;-62
2022/02/16 10:01:34;;;;;;;8.50;5.53;;;23.40;39.20;;;;;;6103372;28;80550;-62
2022/02/16 10:04:35;;;;;;;9.73;5.85;;;23.40;39.80;;;;;;6105834;28;81364;-62
2022/02/16 10:07:39;;;;;;;8.63;4.80;;;23.40;41.10;;;;;;6104022;28;80809;-62
2022/02/16 10:10:40;;;;;;;5.13;3.70;;;23.40;41.40;;;;;;6109456;28;80208;-62
2022/02/16 10:13:40;;;;;;;7.35;3.80;;;23.40;42.30;;;;;;6101326;28;80480;-62
2022/02/16 10:16:41;;;;;;;6.78;3.85;;;23.40;43.00;;;;;;6098662;28;81160;-62
2022/02/16 10:19:41;;;;;;;6.25;4.00;;;23.40;43.90;;;;;;6105401;28;81578;-62
2022/02/16 10:22:42;;;;;;;6.72;4.20;;;23.40;44.40;;;;;;6100507;28;80365;-63
2022/02/16 10:25:42;;;;;;;6.95;4.28;;;23.30;43.70;;;;;;6096629;28;81342;-62
2022/02/16 10:28:43;;;;;;;7.13;4.53;;;23.30;43.40;;;;;;6097817;28;82516;-62
2022/02/16 10:31:43;;;;;;;7.85;4.50;;;23.40;43.10;;;;;;6104424;28;80721;-62
2022/02/16 10:34:44;;;;;;;8.90;5.32;;;23.50;42.80;;;;;;6112155;28;80442;-61
2022/02/16 10:37:44;;;;;;;7.05;4.90;;;23.60;42.40;;;;;;6104461;28;81851;-63
2022/02/16 10:40:45;;;;;;;9.98;4.63;;;23.70;42.70;;;;;;6107695;28;81555;-62
2022/02/16 10:43:46;;;;;;;8.23;4.80;;;23.80;42.30;;;;;;6096242;28;80870;-62
2022/02/16 10:46:47;;;;;;;7.70;5.32;;;23.80;42.20;;;;;;6095850;28;81090;-63
2022/02/16 10:49:49;;;;;;;7.65;5.38;;;23.90;42.10;;;;;;6108051;28;81642;-62
2022/02/16 10:52:51;;;;;;;9.55;4.72;;;23.90;42.00;;;;;;6099358;28;80902;-62
2022/02/16 10:55:51;;;;;;;8.48;4.93;;;24.00;42.30;;;;;;6099411;28;80372;-62
2022/02/16 10:58:52;;;;;;;8.85;5.60;;;24.20;42.10;;;;;;6113307;28;80287;-62
2022/02/16 11:01:52;;;;;;;8.70;5.78;;;24.40;42.00;;;;;;6107357;28;82054;-61
2022/02/16 11:04:54;;;;;;;12.27;5.68;;;24.50;41.10;;;;;;6103228;28;80846;-62
2022/02/16 11:07:55;;;;;;;10.75;5.80;;;24.70;40.90;;;;;;6103557;28;81130;-63
2022/02/16 11:10:55;;;;;;;10.93;5.82;;;24.80;40.40;;;;;;6108286;28;80586;-63
2022/02/16 11:13:56;;;;;;;13.27;5.90;;;24.90;40.30;;;;;;6107625;28;80154;-62
2022/02/16 11:16:56;;;;;;;8.23;5.47;;;25.00;40.10;;;;;;6105696;28;81982;-63
2022/02/16 11:19:57;;;;;;;6.72;4.63;;;25.10;40.20;;;;;;6103318;28;81361;-63
2022/02/16 11:22:58;;;;;;;6.80;4.40;;;25.30;40.20;;;;;;6105078;28;80423;-61
2022/02/16 11:25:58;;;;;;;10.15;5.22;;;25.30;40.10;;;;;;6104698;28;82652;-62
2022/02/16 11:28:59;;;;;;;6.57;4.80;;;25.40;40.10;;;;;;6109443;28;80800;-64
2022/02/16 11:31:59;;;;;;;6.60;4.38;;;25.50;40.20;;;;;;6105506;28;82127;-63
2022/02/16 11:35:01;;;;;;;7.88;4.28;;;25.50;40.20;;;;;;6108748;28;80383;-64
2022/02/16 11:38:04;;;;;;;5.53;4.00;;;25.50;40.30;;;;;;6099982;28;80592;-62
2022/02/16 11:41:05;;;;;;;5.82;3.97;;;25.50;40.30;;;;;;6103720;28;80434;-63
2022/02/16 11:44:08;;;;;;;5.18;3.63;;;25.50;40.20;;;;;;6100732;28;80567;-62
2022/02/16 11:47:09;;;;;;;6.15;3.42;;;25.60;40.80;;;;;;6109829;28;81635;-62
2022/02/16 11:50:13;;;;;;;5.13;3.53;;;25.70;40.30;;;;;;6118807;28;81195;-62
2022/02/16 11:53:13;;;;;;;5.20;3.28;;;25.70;40.40;;;;;;6107000;28;80461;-63
2022/02/16 11:56:14;;;;;;;4.85;3.50;;;25.80;41.00;;;;;;6111264;28;80598;-64
2022/02/16 11:59:14;;;;;;;4.20;3.25;;;25.80;40.10;;;;;;6128151;28;80528;-63
2022/02/16 12:02:15;;;;;;;6.95;3.83;;;25.90;40.20;;;;;;6107398;28;81360;-64
2022/02/16 12:05:16;;;;;;;6.03;2.80;;;25.90;40.10;;;;;;6132435;28;81551;-64
2022/02/16 12:08:16;;;;;;;4.55;2.60;;;25.90;40.30;;;;;;6121886;28;82046;-63
2022/02/16 12:11:19;;;;;;;5.18;3.13;;;26.00;40.20;;;;;;6117610;28;80162;-62
2022/02/16 12:14:20;;;;;;;3.80;2.63;;;26.00;41.00;;;;;;6109106;28;82290;-64
2022/02/16 12:17:20;;;;;;;3.80;2.50;;;26.10;41.50;;;;;;6105459;28;81530;-63
2022/02/16 12:20:21;;;;;;;3.08;2.42;;;26.00;41.60;;;;;;6102149;28;81071;-61
2022/02/16 12:23:21;;;;;;;3.35;2.13;;;26.10;41.80;;;;;;6110748;28;86210;-62
2022/02/16 12:26:22;;;;;;;3.35;2.05;;;26.10;41.80;;;;;;6115769;28;80416;-63
2022/02/16 12:29:23;;;;;;;4.47;2.10;;;26.10;41.70;;;;;;6095630;28;80948;-61
2022/02/16 12:32:23;;;;;;;2.20;2.00;;;26.20;41.70;;;;;;6108796;28;80886;-62
2022/02/16 12:35:24;;;;;;;6.57;2.08;;;26.20;41.70;;;;;;6109659;28;81529;-61
2022/02/16 12:38:24;;;;;;;2.20;2.00;;;26.20;41.50;;;;;;6105081;28;80920;-64
2022/02/16 12:41:25;;;;;;;2.60;1.98;;;26.20;41.50;;;;;;6115218;28;82415;-64
2022/02/16 12:44:25;;;;;;;3.15;2.13;;;26.20;41.20;;;;;;6121466;28;80780;-63
2022/02/16 12:47:26;;;;;;;3.40;1.83;;;26.20;41.00;;;;;;6119859;28;81638;-62
2022/02/16 12:50:27;;;;;;;2.50;2.05;;;26.20;41.00;;;;;;6125987;28;81076;-63
2022/02/16 12:53:28;;;;;;;2.33;2.08;;;26.30;40.90;;;;;;6109703;28;83472;-63
2022/02/16 12:56:28;;;;;;;2.88;2.05;;;26.30;40.90;;;;;;6095528;28;80584;-63
2022/02/16 12:59:30;;;;;;;3.38;2.00;;;26.30;40.90;;;;;;6107886;28;80433;-62
2022/02/16 13:02:30;;;;;;;2.25;1.60;;;26.30;41.00;;;;;;6110265;28;80709;-63
2022/02/16 13:05:31;;;;;;;5.30;2.25;;;26.30;39.50;;;;;;6119325;28;81225;-63
2022/02/16 13:08:31;;;;;;;4.05;2.30;;;26.40;39.70;;;;;;6099566;28;80422;-64
2022/02/16 13:11:32;;;;;;;2.78;1.88;;;26.30;39.90;;;;;;6121371;28;80879;-62
2022/02/16 13:14:32;;;;;;;4.53;2.00;;;26.30;39.30;;;;;;6125529;28;81944;-62
2022/02/16 13:17:33;;;;;;;3.10;2.03;;;26.20;39.00;;;;;;6119033;28;80732;-63
2022/02/16 13:20:34;;;;;;;3.53;2.00;;;26.10;38.60;;;;;;6113758;28;80585;-62
2022/02/16 13:23:35;;;;;;;6.18;3.03;;;26.10;38.50;;;;;;6104287;28;80429;-63
2022/02/16 13:26:35;;;;;;;4.55;2.13;;;26.10;38.20;;;;;;6121179;28;80593;-62
2022/02/16 13:29:36;;;;;;;7.35;2.30;;;26.00;38.10;;;;;;6118719;28;81009;-62
2022/02/16 13:32:38;;;;;;;5.00;2.20;;;26.00;38.10;;;;;;6121217;28;80639;-62
2022/02/16 13:35:38;;;;;;;3.53;2.25;;;26.00;37.90;;;;;;6122562;28;81157;-63
2022/02/16 13:38:39;;;;;;;3.80;2.30;;;26.00;37.70;;;;;;6114623;28;81551;-63
2022/02/16 13:41:40;;;;;;;5.82;2.13;;;26.00;37.60;;;;;;6102700;28;80714;-63
2022/02/16 13:44:40;;;;;;;3.00;2.10;;;26.00;37.10;;;;;;6106156;28;81063;-63
2022/02/16 13:47:41;;;;;;;2.30;2.00;;;26.10;37.00;;;;;;6102579;28;81579;-63
2022/02/16 13:50:42;;;;;;;8.63;2.47;;;26.10;36.70;;;;;;6110804;28;80747;-62
2022/02/16 13:53:42;;;;;;;3.78;2.33;;;26.20;36.40;;;;;;6115164;28;80358;-63
2022/02/16 13:56:46;;;;;;;3.42;2.22;;;26.20;36.40;;;;;;6119948;28;80215;-62
2022/02/16 13:59:46;;;;;;;2.45;2.25;;;26.30;36.40;;;;;;6129485;28;80965;-63
2022/02/16 14:02:47;;;;;;;7.95;2.75;;;26.30;36.30;;;;;;6111923;28;80423;-63
2022/02/16 14:05:47;;;;;;;3.92;3.05;;;26.40;35.90;;;;;;6127884;28;80322;-63
2022/02/16 14:08:48;;;;;;;3.20;2.30;;;26.40;35.30;;;;;;6106496;28;80681;-64
2022/02/16 14:11:48;;;;;;;5.30;3.17;;;26.60;34.70;;;;;;6119887;28;80636;-63
2022/02/16 14:14:49;;;;;;;3.38;2.30;;;26.70;34.80;;;;;;6108977;28;81626;-63
2022/02/16 14:17:50;;;;;;;7.22;2.40;;;26.80;34.00;;;;;;6108354;28;80617;-62
2022/02/16 14:20:50;;;;;;;3.97;2.88;;;26.90;34.70;;;;;;6125250;28;81873;-64
2022/02/16 14:23:51;;;;;;;3.22;2.35;;;27.00;34.10;;;;;;6115616;28;80250;-63
2022/02/16 14:26:51;;;;;;;4.20;2.78;;;27.20;33.40;;;;;;6123285;28;80703;-63
2022/02/16 14:29:52;;;;;;;5.35;2.60;;;27.20;33.70;;;;;;6110080;28;80765;-64
2022/02/16 14:32:53;;;;;;;4.20;2.85;;;27.10;33.60;;;;;;6112456;28;81520;-65
2022/02/16 14:35:54;;;;;;;4.45;2.70;;;27.00;33.90;;;;;;6128500;28;80944;-64
2022/02/16 14:38:54;;;;;;;6.63;2.80;;;26.90;33.80;;;;;;6114004;28;81875;-63
2022/02/16 14:41:55;;;;;;;7.03;2.90;;;26.80;33.80;;;;;;6122756;28;80827;-63
2022/02/16 14:44:55;;;;;;;2.97;2.65;;;26.70;33.90;;;;;;6115048;28;81729;-63
2022/02/16 14:47:56;;;;;;;4.03;2.92;;;26.70;33.70;;;;;;6127108;28;80012;-63
2022/02/16 14:50:56;;;;;;;3.53;2.83;;;26.50;33.70;;;;;;6126990;28;85636;-65
2022/02/16 14:53:57;;;;;;;6.47;3.30;;;26.40;33.70;;;;;;6119430;28;80104;-64
2022/02/16 14:56:57;;;;;;;4.50;2.88;;;26.30;33.50;;;;;;6122448;28;81164;-63
2022/02/16 14:59:58;;;;;;;5.07;2.80;;;26.20;33.60;;;;;;6095493;28;80961;-64
2022/02/16 15:02:59;;;;;;;5.38;3.15;;;26.10;33.20;;;;;;6099804;28;80586;-63
2022/02/16 15:05:59;;;;;;;4.95;3.17;;;26.20;32.90;;;;;;6118970;28;81106;-64
2022/02/16 15:09:00;;;;;;;4.57;2.60;;;26.30;33.00;;;;;;6103231;28;80141;-63
2022/02/16 15:12:00;;;;;;;2.90;2.60;;;26.40;32.50;;;;;;6106648;28;80446;-64
2022/02/16 15:15:01;;;;;;;4.45;3.10;;;26.50;32.50;;;;;;6097545;28;81476;-63
2022/02/16 15:18:02;;;;;;;3.95;2.90;;;26.30;32.30;;;;;;6102103;28;80863;-64
2022/02/16 15:21:02;;;;;;;3.38;2.60;;;26.10;32.60;;;;;;6095981;28;81652;-63
2022/02/16 15:24:03;;;;;;;6.25;3.22;;;25.90;32.20;;;;;;6103605;28;80082;-62
2022/02/16 15:27:03;;;;;;;5.68;3.10;;;25.80;32.20;;;;;;6096116;28;80404;-62
2022/02/16 15:30:04;;;;;;;6.90;2.55;;;25.70;32.40;;;;;;6097419;28;81669;-61
2022/02/16 15:33:06;;;;;;;7.72;3.38;;;25.60;33.10;;;;;;6100520;28;80296;-63